Aviation Digital Data Service (ADDS)

Output produced by METARs form (1112 UTC 19 February 2019)
found at http://www.aviationweather.gov/metar/data/
 
METAR text: CYYZ 191100Z 25002KT 15SM -SN BKN033 M12/M17 A3057 RMK SC7 SLP366
Conditions at: CYYZ (TORONTO/PEARSON , ON, CA) observed 1100 UTC 19 February 2019
Temperature: -12.0°C (10°F)
Dewpoint: -17.0°C ( 1°F) [RH = 66%]
Pressure (altimeter): 30.57 inches Hg (1035.3 mb)
[Sea-level pressure: 1036.6 mb]
Winds: from the WSW (250 degrees) at 2 MPH (2 knots; 1.0 m/s)
Visibility: 15 miles (24 km)
Ceiling: 3300 feet AGL
Clouds: broken clouds at 3300 feet AGL
Weather: -SN  (light snow)

METAR text: CYYZ 191032Z 29002KT 15SM -SN BKN035 M12/M17 A3055 RMK SC7 SLP360
Conditions at: CYYZ (TORONTO/PEARSON , ON, CA) observed 1032 UTC 19 February 2019
Temperature: -12.0°C (10°F)
Dewpoint: -17.0°C ( 1°F) [RH = 66%]
Pressure (altimeter): 30.55 inches Hg (1034.6 mb)
[Sea-level pressure: 1036.0 mb]
Winds: from the WNW (290 degrees) at 2 MPH (2 knots; 1.0 m/s)
Visibility: 15 miles (24 km)
Ceiling: 3500 feet AGL
Clouds: broken clouds at 3500 feet AGL
Weather: -SN  (light snow)

METAR text: CYYZ 191000Z 27003KT 15SM BKN035 M13/M18 A3054 RMK SC7 SLP357
Conditions at: CYYZ (TORONTO/PEARSON , ON, CA) observed 1000 UTC 19 February 2019
Temperature: -13.0°C ( 9°F)
Dewpoint: -18.0°C (-0°F) [RH = 66%]
Pressure (altimeter): 30.54 inches Hg (1034.3 mb)
[Sea-level pressure: 1035.7 mb]
Winds: from the W (270 degrees) at 3 MPH (3 knots; 1.5 m/s)
Visibility: 15 miles (24 km)
Ceiling: 3500 feet AGL
Clouds: broken clouds at 3500 feet AGL
Weather: no significant weather observed at this time

METAR text: CYYZ 190900Z 28006KT 15SM BKN035 M14/M19 A3053 RMK SC7 SLP355
Conditions at: CYYZ (TORONTO/PEARSON , ON, CA) observed 0900 UTC 19 February 2019
Temperature: -14.0°C ( 7°F)
Dewpoint: -19.0°C (-2°F) [RH = 66%]
Pressure (altimeter): 30.53 inches Hg (1033.9 mb)
[Sea-level pressure: 1035.5 mb]
Winds: from the W (280 degrees) at 7 MPH (6 knots; 3.1 m/s)
Visibility: 15 miles (24 km)
Ceiling: 3500 feet AGL
Clouds: broken clouds at 3500 feet AGL
Weather: no significant weather observed at this time

METAR text: CYYZ 190800Z 24004KT 15SM FEW210 M15/M20 A3053 RMK CI1 SLP353
Conditions at: CYYZ (TORONTO/PEARSON , ON, CA) observed 0800 UTC 19 February 2019
Temperature: -15.0°C ( 5°F)
Dewpoint: -20.0°C (-4°F) [RH = 66%]
Pressure (altimeter): 30.53 inches Hg (1033.9 mb)
[Sea-level pressure: 1035.3 mb]
Winds: from the WSW (240 degrees) at 5 MPH (4 knots; 2.1 m/s)
Visibility: 15 miles (24 km)
Ceiling: at least 12,000 feet AGL
Clouds: few clouds at 21000 feet AGL
Weather: no significant weather observed at this time

METAR text: CYYZ 190700Z 26005KT 15SM FEW210 M14/M19 A3052 RMK CI1 CI TR SLP348
Conditions at: CYYZ (TORONTO/PEARSON , ON, CA) observed 0700 UTC 19 February 2019
Temperature: -14.0°C ( 7°F)
Dewpoint: -19.0°C (-2°F) [RH = 66%]
Pressure (altimeter): 30.52 inches Hg (1033.6 mb)
[Sea-level pressure: 1034.8 mb]
Winds: from the W (260 degrees) at 6 MPH (5 knots; 2.6 m/s)
Visibility: 15 miles (24 km)
Ceiling: at least 12,000 feet AGL
Clouds: few clouds at 21000 feet AGL
Weather: no significant weather observed at this time

METAR text: CYYZ 190600Z 28007KT 15SM FEW210 M14/M19 A3050 RMK CI1 CI TR SLP343
Conditions at: CYYZ (TORONTO/PEARSON , ON, CA) observed 0600 UTC 19 February 2019
Temperature: -14.0°C ( 7°F)
Dewpoint: -19.0°C (-2°F) [RH = 66%]
Pressure (altimeter): 30.50 inches Hg (1032.9 mb)
[Sea-level pressure: 1034.3 mb]
Winds: from the W (280 degrees) at 8 MPH (7 knots; 3.6 m/s)
Visibility: 15 miles (24 km)
Ceiling: at least 12,000 feet AGL
Clouds: few clouds at 21000 feet AGL
Weather: no significant weather observed at this time

METAR text: CYYZ 190500Z 28007KT 15SM SKC M13/M19 A3048 RMK SLP335
Conditions at: CYYZ (TORONTO/PEARSON , ON, CA) observed 0500 UTC 19 February 2019
Temperature: -13.0°C ( 9°F)
Dewpoint: -19.0°C (-2°F) [RH = 61%]
Pressure (altimeter): 30.48 inches Hg (1032.3 mb)
[Sea-level pressure: 1033.5 mb]
Winds: from the W (280 degrees) at 8 MPH (7 knots; 3.6 m/s)
Visibility: 15 miles (24 km)
Ceiling: at least 12,000 feet AGL
Clouds: clear skies
Weather: no significant weather observed at this time

METAR text: CYYZ 190400Z 29007KT 15SM SKC M12/M18 A3045 RMK SLP327
Conditions at: CYYZ (TORONTO/PEARSON , ON, CA) observed 0400 UTC 19 February 2019
Temperature: -12.0°C (10°F)
Dewpoint: -18.0°C (-0°F) [RH = 61%]
Pressure (altimeter): 30.45 inches Hg (1031.2 mb)
[Sea-level pressure: 1032.7 mb]
Winds: from the WNW (290 degrees) at 8 MPH (7 knots; 3.6 m/s)
Visibility: 15 miles (24 km)
Ceiling: at least 12,000 feet AGL
Clouds: clear skies
Weather: no significant weather observed at this time

METAR text: CYYZ 190300Z 32012KT 15SM SKC M12/M18 A3044 RMK SLP322
Conditions at: CYYZ (TORONTO/PEARSON , ON, CA) observed 0300 UTC 19 February 2019
Temperature: -12.0°C (10°F)
Dewpoint: -18.0°C (-0°F) [RH = 61%]
Pressure (altimeter): 30.44 inches Hg (1030.9 mb)
[Sea-level pressure: 1032.2 mb]
Winds: from the NW (320 degrees) at 14 MPH (12 knots; 6.2 m/s)
Visibility: 15 miles (24 km)
Ceiling: at least 12,000 feet AGL
Clouds: clear skies
Weather: no significant weather observed at this time

METAR text: CYYZ 190200Z 32012KT 15SM SKC M11/M17 A3042 RMK SLP315
Conditions at: CYYZ (TORONTO/PEARSON , ON, CA) observed 0200 UTC 19 February 2019
Temperature: -11.0°C (12°F)
Dewpoint: -17.0°C ( 1°F) [RH = 61%]
Pressure (altimeter): 30.42 inches Hg (1030.2 mb)
[Sea-level pressure: 1031.5 mb]
Winds: from the NW (320 degrees) at 14 MPH (12 knots; 6.2 m/s)
Visibility: 15 miles (24 km)
Ceiling: at least 12,000 feet AGL
Clouds: clear skies
Weather: no significant weather observed at this time

METAR text: CYYZ 190100Z 33013KT 15SM FEW230 M10/M16 A3038 RMK CI1 SLP302
Conditions at: CYYZ (TORONTO/PEARSON , ON, CA) observed 0100 UTC 19 February 2019
Temperature: -10.0°C (14°F)
Dewpoint: -16.0°C ( 3°F) [RH = 61%]
Pressure (altimeter): 30.38 inches Hg (1028.9 mb)
[Sea-level pressure: 1030.2 mb]
Winds: from the NNW (330 degrees) at 15 MPH (13 knots; 6.7 m/s)
Visibility: 15 miles (24 km)
Ceiling: at least 12,000 feet AGL
Clouds: few clouds at 23000 feet AGL
Weather: no significant weather observed at this time

METAR text: CYYZ 190000Z 35009KT 15SM FEW230 M09/M16 A3034 RMK CI1 SLP289
Conditions at: CYYZ (TORONTO/PEARSON , ON, CA) observed 0000 UTC 19 February 2019
Temperature: -9.0°C (16°F)
Dewpoint: -16.0°C ( 3°F) [RH = 57%]
Pressure (altimeter): 30.34 inches Hg (1027.5 mb)
[Sea-level pressure: 1028.9 mb]
Winds: from the N (350 degrees) at 10 MPH (9 knots; 4.6 m/s)
Visibility: 15 miles (24 km)
Ceiling: at least 12,000 feet AGL
Clouds: few clouds at 23000 feet AGL
Weather: no significant weather observed at this time

METAR text: CYYZ 182300Z 35012KT 15SM FEW230 M08/M16 A3029 RMK CI1 SLP271
Conditions at: CYYZ (TORONTO/PEARSON , ON, CA) observed 2300 UTC 18 February 2019
Temperature: -8.0°C (18°F)
Dewpoint: -16.0°C ( 3°F) [RH = 53%]
Pressure (altimeter): 30.29 inches Hg (1025.8 mb)
[Sea-level pressure: 1027.1 mb]
Winds: from the N (350 degrees) at 14 MPH (12 knots; 6.2 m/s)
Visibility: 15 miles (24 km)
Ceiling: at least 12,000 feet AGL
Clouds: few clouds at 23000 feet AGL
Weather: no significant weather observed at this time

METAR text: CYYZ 182200Z 35011KT 15SM FEW230 M07/M15 A3025 RMK CI2 SLP256
Conditions at: CYYZ (TORONTO/PEARSON , ON, CA) observed 2200 UTC 18 February 2019
Temperature: -7.0°C (19°F)
Dewpoint: -15.0°C ( 5°F) [RH = 53%]
Pressure (altimeter): 30.25 inches Hg (1024.5 mb)
[Sea-level pressure: 1025.6 mb]
Winds: from the N (350 degrees) at 13 MPH (11 knots; 5.7 m/s)
Visibility: 15 miles (24 km)
Ceiling: at least 12,000 feet AGL
Clouds: few clouds at 23000 feet AGL
Weather: no significant weather observed at this time

METAR text: CYYZ 182100Z 36013KT 15SM FEW230 M06/M14 A3021 RMK CI1 SLP244
Conditions at: CYYZ (TORONTO/PEARSON , ON, CA) observed 2100 UTC 18 February 2019
Temperature: -6.0°C (21°F)
Dewpoint: -14.0°C ( 7°F) [RH = 53%]
Pressure (altimeter): 30.21 inches Hg (1023.1 mb)
[Sea-level pressure: 1024.4 mb]
Winds: from the N (360 degrees) at 15 MPH (13 knots; 6.7 m/s)
Visibility: 15 miles (24 km)
Ceiling: at least 12,000 feet AGL
Clouds: few clouds at 23000 feet AGL
Weather: no significant weather observed at this time

METAR text: CYYZ 182000Z 35015KT 15SM SCT230 M06/M14 A3019 RMK CI3 SLP236
Conditions at: CYYZ (TORONTO/PEARSON , ON, CA) observed 2000 UTC 18 February 2019
Temperature: -6.0°C (21°F)
Dewpoint: -14.0°C ( 7°F) [RH = 53%]
Pressure (altimeter): 30.19 inches Hg (1022.4 mb)
[Sea-level pressure: 1023.6 mb]
Winds: from the N (350 degrees) at 17 MPH (15 knots; 7.7 m/s)
Visibility: 15 miles (24 km)
Ceiling: at least 12,000 feet AGL
Clouds: scattered clouds at 23000 feet AGL
Weather: no significant weather observed at this time

METAR text: CYYZ 181900Z 33014KT 15SM FEW050 SCT220 M06/M12 A3016 RMK SC1CI3 SC TR SLP224
Conditions at: CYYZ (TORONTO/PEARSON , ON, CA) observed 1900 UTC 18 February 2019
Temperature: -6.0°C (21°F)
Dewpoint: -12.0°C (10°F) [RH = 62%]
Pressure (altimeter): 30.16 inches Hg (1021.4 mb)
[Sea-level pressure: 1022.4 mb]
Winds: from the NNW (330 degrees) at 16 MPH (14 knots; 7.2 m/s)
Visibility: 15 miles (24 km)
Ceiling: at least 12,000 feet AGL
Clouds: few clouds at 5000 feet AGL
scattered clouds at 22000 feet AGL
Weather: no significant weather observed at this time

METAR text: CYYZ 181800Z 33011KT 15SM FEW050 FEW220 M07/M12 A3014 RMK SC1CI2 SC TR SLP218
Conditions at: CYYZ (TORONTO/PEARSON , ON, CA) observed 1800 UTC 18 February 2019
Temperature: -7.0°C (19°F)
Dewpoint: -12.0°C (10°F) [RH = 67%]
Pressure (altimeter): 30.14 inches Hg (1020.7 mb)
[Sea-level pressure: 1021.8 mb]
Winds: from the NNW (330 degrees) at 13 MPH (11 knots; 5.7 m/s)
Visibility: 15 miles (24 km)
Ceiling: at least 12,000 feet AGL
Clouds: few clouds at 5000 feet AGL
few clouds at 22000 feet AGL
Weather: no significant weather observed at this time

METAR text: CYYZ 181700Z 33013KT 15SM FEW020 FEW050 FEW110 SCT200 M07/M12 A3013 RMK CF1SC1AC1CI1 CF TR SLP214
Conditions at: CYYZ (TORONTO/PEARSON , ON, CA) observed 1700 UTC 18 February 2019
Temperature: -7.0°C (19°F)
Dewpoint: -12.0°C (10°F) [RH = 67%]
Pressure (altimeter): 30.13 inches Hg (1020.4 mb)
[Sea-level pressure: 1021.4 mb]
Winds: from the NNW (330 degrees) at 15 MPH (13 knots; 6.7 m/s)
Visibility: 15 miles (24 km)
Ceiling: at least 12,000 feet AGL
Clouds: few clouds at 2000 feet AGL
few clouds at 5000 feet AGL
few clouds at 11000 feet AGL
scattered clouds at 20000 feet AGL
Weather: no significant weather observed at this time

METAR text: CYYZ 181600Z CCA 35011KT 15SM DRSN FEW014 SCT019 BKN050 M08/M11 A3009 RMK CU1SC3SC3 /S02/ SLP203
Conditions at: CYYZ (TORONTO/PEARSON , ON, CA) observed 1600 UTC 18 February 2019
Temperature: -8.0°C (18°F)
Dewpoint: -11.0°C (12°F) [RH = 79%]
Pressure (altimeter): 30.09 inches Hg (1019.0 mb)
[Sea-level pressure: 1020.3 mb]
Winds: from the N (350 degrees) at 13 MPH (11 knots; 5.7 m/s)
Visibility: 15 miles (24 km)
Ceiling: 5000 feet AGL
Clouds: few clouds at 1400 feet AGL
scattered clouds at 1900 feet AGL
broken clouds at 5000 feet AGL
Weather: DRSN  (low drifting snow)

METAR text: CYYZ 181529Z 36012KT 6SM -SN DRSN OVC017 M09/M12 A3008 RMK SN2SC6 SLP198
Conditions at: CYYZ (TORONTO/PEARSON , ON, CA) observed 1529 UTC 18 February 2019
Temperature: -9.0°C (16°F)
Dewpoint: -12.0°C (10°F) [RH = 79%]
Pressure (altimeter): 30.08 inches Hg (1018.7 mb)
[Sea-level pressure: 1019.8 mb]
Winds: from the N (360 degrees) at 14 MPH (12 knots; 6.2 m/s)
Visibility: 6 miles (10 km)
Ceiling: 1700 feet AGL
Clouds: overcast cloud deck at 1700 feet AGL
Weather: -SN DRSN  (light snow, low drifting snow)

METAR text: CYYZ 181500Z 36010KT 2SM -SN DRSN OVC017 M09/M12 A3007 RMK SN4SC4 SLP194
Conditions at: CYYZ (TORONTO/PEARSON , ON, CA) observed 1500 UTC 18 February 2019
Temperature: -9.0°C (16°F)
Dewpoint: -12.0°C (10°F) [RH = 79%]
Pressure (altimeter): 30.07 inches Hg (1018.4 mb)
[Sea-level pressure: 1019.4 mb]
Winds: from the N (360 degrees) at 12 MPH (10 knots; 5.1 m/s)
Visibility: 2.00 miles (3.22 km)
Ceiling: 1700 feet AGL
Clouds: overcast cloud deck at 1700 feet AGL
Weather: -SN DRSN  (light snow, low drifting snow)

METAR text: CYYZ 181449Z 36011KT 2SM -SN DRSN OVC016 M09/M12 A3006 RMK SN4SC4 SLP192
Conditions at: CYYZ (TORONTO/PEARSON , ON, CA) observed 1449 UTC 18 February 2019
Temperature: -9.0°C (16°F)
Dewpoint: -12.0°C (10°F) [RH = 79%]
Pressure (altimeter): 30.06 inches Hg (1018.0 mb)
[Sea-level pressure: 1019.2 mb]
Winds: from the N (360 degrees) at 13 MPH (11 knots; 5.7 m/s)
Visibility: 2.00 miles (3.22 km)
Ceiling: 1600 feet AGL
Clouds: overcast cloud deck at 1600 feet AGL
Weather: -SN DRSN  (light snow, low drifting snow)

METAR text: CYYZ 181400Z 36013KT 1 1/2SM -SN DRSN VV009 M09/M13 A3004 RMK SN8 /S01/ SLP184
Conditions at: CYYZ (TORONTO/PEARSON , ON, CA) observed 1400 UTC 18 February 2019
Temperature: -9.0°C (16°F)
Dewpoint: -13.0°C ( 9°F) [RH = 73%]
Pressure (altimeter): 30.04 inches Hg (1017.4 mb)
[Sea-level pressure: 1018.4 mb]
Winds: from the N (360 degrees) at 15 MPH (13 knots; 6.7 m/s)
Visibility: 1.50 miles (2.41 km)
Ceiling: indefinite ceiling with vertical visibility of 900 feet AGL
Clouds: obscured sky
Weather: -SN DRSN  (light snow, low drifting snow)

METAR text: CYYZ 181319Z 35010G16KT 4SM -SN DRSN OVC018 M09/M12 A3001 RMK SN4SC4 SLP175
Conditions at: CYYZ (TORONTO/PEARSON , ON, CA) observed 1319 UTC 18 February 2019
Temperature: -9.0°C (16°F)
Dewpoint: -12.0°C (10°F) [RH = 79%]
Pressure (altimeter): 30.01 inches Hg (1016.3 mb)
[Sea-level pressure: 1017.5 mb]
Winds: from the N (350 degrees) at 12 MPH (10 knots; 5.1 m/s)
gusting to 18 MPH (16 knots; 8.2 m/s)
Visibility: 4 miles ( 6 km)
Ceiling: 1800 feet AGL
Clouds: overcast cloud deck at 1800 feet AGL
Weather: -SN DRSN  (light snow, low drifting snow)

METAR text: CYYZ 181308Z 35011KT 2SM R06L/4500VP6000FT/U -SN DRSN VV011 M09/M13 A3000 RMK SN8 PRESRR SLP172
Conditions at: CYYZ (TORONTO/PEARSON , ON, CA) observed 1308 UTC 18 February 2019
Temperature: -9.0°C (16°F)
Dewpoint: -13.0°C ( 9°F) [RH = 73%]
Pressure (altimeter): 30.00 inches Hg (1016.0 mb)
[Sea-level pressure: 1017.2 mb]
Winds: from the N (350 degrees) at 13 MPH (11 knots; 5.7 m/s)
Visibility: 2.00 miles (3.22 km)
Ceiling: indefinite ceiling with vertical visibility of 1100 feet AGL
Clouds: obscured sky
Weather: DRSN -SN  (low drifting snow, light snow)

METAR text: CYYZ 181300Z 34010KT 1 1/2SM R06L/4500VP6000FT/N -SN DRSN VV009 M09/M13 A2999 RMK SN8 PRESRR SLP170
Conditions at: CYYZ (TORONTO/PEARSON , ON, CA) observed 1300 UTC 18 February 2019
Temperature: -9.0°C (16°F)
Dewpoint: -13.0°C ( 9°F) [RH = 73%]
Pressure (altimeter): 29.99 inches Hg (1015.7 mb)
[Sea-level pressure: 1017.0 mb]
Winds: from the NNW (340 degrees) at 12 MPH (10 knots; 5.1 m/s)
Visibility: 1.50 miles (2.41 km)
Ceiling: indefinite ceiling with vertical visibility of 900 feet AGL
Clouds: obscured sky
Weather: DRSN -SN  (low drifting snow, light snow)

METAR text: CYYZ 181217Z 36009KT 1 1/2SM -SN DRSN VV009 M10/M13 A2996 RMK SN8 SLP160
Conditions at: CYYZ (TORONTO/PEARSON , ON, CA) observed 1217 UTC 18 February 2019
Temperature: -10.0°C (14°F)
Dewpoint: -13.0°C ( 9°F) [RH = 79%]
Pressure (altimeter): 29.96 inches Hg (1014.6 mb)
[Sea-level pressure: 1016.0 mb]
Winds: from the N (360 degrees) at 10 MPH (9 knots; 4.6 m/s)
Visibility: 1.50 miles (2.41 km)
Ceiling: indefinite ceiling with vertical visibility of 900 feet AGL
Clouds: obscured sky
Weather: -SN DRSN  (light snow, low drifting snow)

METAR text: CYYZ 181209Z 36010KT 1SM R06L/P6000FT/U R05/P6000FT/D -SN DRSN VV008 M10/M13 A2996 RMK SN8 SLP158
Conditions at: CYYZ (TORONTO/PEARSON , ON, CA) observed 1209 UTC 18 February 2019
Temperature: -10.0°C (14°F)
Dewpoint: -13.0°C ( 9°F) [RH = 79%]
Pressure (altimeter): 29.96 inches Hg (1014.6 mb)
[Sea-level pressure: 1015.8 mb]
Winds: from the N (360 degrees) at 12 MPH (10 knots; 5.1 m/s)
Visibility: 1.00 miles (1.61 km)
Ceiling: indefinite ceiling with vertical visibility of 800 feet AGL
Clouds: obscured sky
Weather: DRSN -SN  (low drifting snow, light snow)

METAR text: CYYZ 181200Z 36012KT 2SM -SN DRSN VV010 M10/M13 A2996 RMK SN8 /S03/ SLP157
Conditions at: CYYZ (TORONTO/PEARSON , ON, CA) observed 1200 UTC 18 February 2019
Temperature: -10.0°C (14°F)
Dewpoint: -13.0°C ( 9°F) [RH = 79%]
Pressure (altimeter): 29.96 inches Hg (1014.6 mb)
[Sea-level pressure: 1015.7 mb]
Winds: from the N (360 degrees) at 14 MPH (12 knots; 6.2 m/s)
Visibility: 2.00 miles (3.22 km)
Ceiling: indefinite ceiling with vertical visibility of 1000 feet AGL
Clouds: obscured sky
Weather: -SN DRSN  (light snow, low drifting snow)

METAR text: CYYZ 181128Z 01011KT 3SM -SN DRSN OVC036 M10/M13 A2993 RMK SN6SC2 SLP148
Conditions at: CYYZ (TORONTO/PEARSON , ON, CA) observed 1128 UTC 18 February 2019
Temperature: -10.0°C (14°F)
Dewpoint: -13.0°C ( 9°F) [RH = 79%]
Pressure (altimeter): 29.93 inches Hg (1013.6 mb)
[Sea-level pressure: 1014.8 mb]
Winds: from the N (10 degrees) at 13 MPH (11 knots; 5.7 m/s)
Visibility: 3 miles ( 5 km)
Ceiling: 3600 feet AGL
Clouds: overcast cloud deck at 3600 feet AGL
Weather: -SN DRSN  (light snow, low drifting snow)

METAR text: CYYZ 181117Z 36012KT 2SM -SN DRSN VV009 M10/M13 A2993 RMK SN8 SLP146
Conditions at: CYYZ (TORONTO/PEARSON , ON, CA) observed 1117 UTC 18 February 2019
Temperature: -10.0°C (14°F)
Dewpoint: -13.0°C ( 9°F) [RH = 79%]
Pressure (altimeter): 29.93 inches Hg (1013.6 mb)
[Sea-level pressure: 1014.6 mb]
Winds: from the N (360 degrees) at 14 MPH (12 knots; 6.2 m/s)
Visibility: 2.00 miles (3.22 km)
Ceiling: indefinite ceiling with vertical visibility of 900 feet AGL
Clouds: obscured sky
Weather: -SN DRSN  (light snow, low drifting snow)

METAR text: CYYZ 181100Z 36012KT 3SM -SN OVC013 M10/M13 A2992 RMK SC8 SLP145
Conditions at: CYYZ (TORONTO/PEARSON , ON, CA) observed 1100 UTC 18 February 2019
Temperature: -10.0°C (14°F)
Dewpoint: -13.0°C ( 9°F) [RH = 79%]
Pressure (altimeter): 29.92 inches Hg (1013.3 mb)
[Sea-level pressure: 1014.5 mb]
Winds: from the N (360 degrees) at 14 MPH (12 knots; 6.2 m/s)
Visibility: 3 miles ( 5 km)
Ceiling: 1300 feet AGL
Clouds: overcast cloud deck at 1300 feet AGL
Weather: -SN  (light snow)

METAR text: CYYZ 181050Z 01013KT 3SM -SN OVC013 M10/M13 A2992 RMK SC8 SLP143
Conditions at: CYYZ (TORONTO/PEARSON , ON, CA) observed 1050 UTC 18 February 2019
Temperature: -10.0°C (14°F)
Dewpoint: -13.0°C ( 9°F) [RH = 79%]
Pressure (altimeter): 29.92 inches Hg (1013.3 mb)
[Sea-level pressure: 1014.3 mb]
Winds: from the N (10 degrees) at 15 MPH (13 knots; 6.7 m/s)
Visibility: 3 miles ( 5 km)
Ceiling: 1300 feet AGL
Clouds: overcast cloud deck at 1300 feet AGL
Weather: -SN  (light snow)

METAR text: CYYZ 181024Z 01013KT 3SM -SN OVC030 M10/M13 A2991 RMK SC8 SLP142
Conditions at: CYYZ (TORONTO/PEARSON , ON, CA) observed 1024 UTC 18 February 2019
Temperature: -10.0°C (14°F)
Dewpoint: -13.0°C ( 9°F) [RH = 79%]
Pressure (altimeter): 29.91 inches Hg (1013.0 mb)
[Sea-level pressure: 1014.2 mb]
Winds: from the N (10 degrees) at 15 MPH (13 knots; 6.7 m/s)
Visibility: 3 miles ( 5 km)
Ceiling: 3000 feet AGL
Clouds: overcast cloud deck at 3000 feet AGL
Weather: -SN  (light snow)

METAR text: CYYZ 181013Z 01011KT 2SM -SN OVC011 M10/M13 A2991 RMK SC8 SLP140
Conditions at: CYYZ (TORONTO/PEARSON , ON, CA) observed 1013 UTC 18 February 2019
Temperature: -10.0°C (14°F)
Dewpoint: -13.0°C ( 9°F) [RH = 79%]
Pressure (altimeter): 29.91 inches Hg (1013.0 mb)
[Sea-level pressure: 1014.0 mb]
Winds: from the N (10 degrees) at 13 MPH (11 knots; 5.7 m/s)
Visibility: 2.00 miles (3.22 km)
Ceiling: 1100 feet AGL
Clouds: overcast cloud deck at 1100 feet AGL
Weather: -SN  (light snow)

METAR text: CYYZ 181000Z 01013KT 2SM -SN OVC009 M10/M13 A2990 RMK SC8 /S02/ SLP138
Conditions at: CYYZ (TORONTO/PEARSON , ON, CA) observed 1000 UTC 18 February 2019
Temperature: -10.0°C (14°F)
Dewpoint: -13.0°C ( 9°F) [RH = 79%]
Pressure (altimeter): 29.90 inches Hg (1012.6 mb)
[Sea-level pressure: 1013.8 mb]
Winds: from the N (10 degrees) at 15 MPH (13 knots; 6.7 m/s)
Visibility: 2.00 miles (3.22 km)
Ceiling: 900 feet AGL
Clouds: overcast cloud deck at 900 feet AGL
Weather: -SN  (light snow)

METAR text: CYYZ 180931Z 36014KT 2SM -SN OVC007 M09/M13 A2989 RMK SC8 SLP134
Conditions at: CYYZ (TORONTO/PEARSON , ON, CA) observed 0931 UTC 18 February 2019
Temperature: -9.0°C (16°F)
Dewpoint: -13.0°C ( 9°F) [RH = 73%]
Pressure (altimeter): 29.89 inches Hg (1012.3 mb)
[Sea-level pressure: 1013.4 mb]
Winds: from the N (360 degrees) at 16 MPH (14 knots; 7.2 m/s)
Visibility: 2.00 miles (3.22 km)
Ceiling: 700 feet AGL
Clouds: overcast cloud deck at 700 feet AGL
Weather: -SN  (light snow)

METAR text: CYYZ 180924Z 01011KT 6SM -SN OVC012 M09/M13 A2989 RMK SC8 SLP133
Conditions at: CYYZ (TORONTO/PEARSON , ON, CA) observed 0924 UTC 18 February 2019
Temperature: -9.0°C (16°F)
Dewpoint: -13.0°C ( 9°F) [RH = 73%]
Pressure (altimeter): 29.89 inches Hg (1012.3 mb)
[Sea-level pressure: 1013.3 mb]
Winds: from the N (10 degrees) at 13 MPH (11 knots; 5.7 m/s)
Visibility: 6 miles (10 km)
Ceiling: 1200 feet AGL
Clouds: overcast cloud deck at 1200 feet AGL
Weather: -SN  (light snow)

METAR text: CYYZ 180900Z 01013KT 6SM -SN OVC018 M09/M13 A2988 RMK SC8 SLP132
Conditions at: CYYZ (TORONTO/PEARSON , ON, CA) observed 0900 UTC 18 February 2019
Temperature: -9.0°C (16°F)
Dewpoint: -13.0°C ( 9°F) [RH = 73%]
Pressure (altimeter): 29.88 inches Hg (1011.9 mb)
[Sea-level pressure: 1013.2 mb]
Winds: from the N (10 degrees) at 15 MPH (13 knots; 6.7 m/s)
Visibility: 6 miles (10 km)
Ceiling: 1800 feet AGL
Clouds: overcast cloud deck at 1800 feet AGL
Weather: -SN  (light snow)

METAR text: CYYZ 180854Z 01013G19KT 6SM -SN OVC015 M09/M13 A2988 RMK SC8 SLP131
Conditions at: CYYZ (TORONTO/PEARSON , ON, CA) observed 0854 UTC 18 February 2019
Temperature: -9.0°C (16°F)
Dewpoint: -13.0°C ( 9°F) [RH = 73%]
Pressure (altimeter): 29.88 inches Hg (1011.9 mb)
[Sea-level pressure: 1013.1 mb]
Winds: from the N (10 degrees) at 15 MPH (13 knots; 6.7 m/s)
gusting to 22 MPH (19 knots; 9.8 m/s)
Visibility: 6 miles (10 km)
Ceiling: 1500 feet AGL
Clouds: overcast cloud deck at 1500 feet AGL
Weather: -SN  (light snow)

METAR text: CYYZ 180848Z 02012G19KT 6SM -SN OVC012 M09/M13 A2988 RMK SC8 SLP132
Conditions at: CYYZ (TORONTO/PEARSON , ON, CA) observed 0848 UTC 18 February 2019
Temperature: -9.0°C (16°F)
Dewpoint: -13.0°C ( 9°F) [RH = 73%]
Pressure (altimeter): 29.88 inches Hg (1011.9 mb)
[Sea-level pressure: 1013.2 mb]
Winds: from the NNE (20 degrees) at 14 MPH (12 knots; 6.2 m/s)
gusting to 22 MPH (19 knots; 9.8 m/s)
Visibility: 6 miles (10 km)
Ceiling: 1200 feet AGL
Clouds: overcast cloud deck at 1200 feet AGL
Weather: -SN  (light snow)

METAR text: CYYZ 180836Z 02014KT 4SM -SN OVC009 M09/M13 A2987 RMK SC8 SLP129
Conditions at: CYYZ (TORONTO/PEARSON , ON, CA) observed 0836 UTC 18 February 2019
Temperature: -9.0°C (16°F)
Dewpoint: -13.0°C ( 9°F) [RH = 73%]
Pressure (altimeter): 29.87 inches Hg (1011.6 mb)
[Sea-level pressure: 1012.9 mb]
Winds: from the NNE (20 degrees) at 16 MPH (14 knots; 7.2 m/s)
Visibility: 4 miles ( 6 km)
Ceiling: 900 feet AGL
Clouds: overcast cloud deck at 900 feet AGL
Weather: -SN  (light snow)

METAR text: CYYZ 180825Z 02011G18KT 4SM -SN OVC014 M09/M13 A2988 RMK SC8 SLP130
Conditions at: CYYZ (TORONTO/PEARSON , ON, CA) observed 0825 UTC 18 February 2019
Temperature: -9.0°C (16°F)
Dewpoint: -13.0°C ( 9°F) [RH = 73%]
Pressure (altimeter): 29.88 inches Hg (1011.9 mb)
[Sea-level pressure: 1013.0 mb]
Winds: from the NNE (20 degrees) at 13 MPH (11 knots; 5.7 m/s)
gusting to 21 MPH (18 knots; 9.3 m/s)
Visibility: 4 miles ( 6 km)
Ceiling: 1400 feet AGL
Clouds: overcast cloud deck at 1400 feet AGL
Weather: -SN  (light snow)

METAR text: CYYZ 180800Z 02013KT 6SM -SN OVC022 M09/M13 A2988 RMK SC8 /S01/ SLP130
Conditions at: CYYZ (TORONTO/PEARSON , ON, CA) observed 0800 UTC 18 February 2019
Temperature: -9.0°C (16°F)
Dewpoint: -13.0°C ( 9°F) [RH = 73%]
Pressure (altimeter): 29.88 inches Hg (1011.9 mb)
[Sea-level pressure: 1013.0 mb]
Winds: from the NNE (20 degrees) at 15 MPH (13 knots; 6.7 m/s)
Visibility: 6 miles (10 km)
Ceiling: 2200 feet AGL
Clouds: overcast cloud deck at 2200 feet AGL
Weather: -SN  (light snow)

METAR text: CYYZ 180753Z 01013KT 4SM -SN OVC012 M09/M13 A2988 RMK SC8 SLP131
Conditions at: CYYZ (TORONTO/PEARSON , ON, CA) observed 0753 UTC 18 February 2019
Temperature: -9.0°C (16°F)
Dewpoint: -13.0°C ( 9°F) [RH = 73%]
Pressure (altimeter): 29.88 inches Hg (1011.9 mb)
[Sea-level pressure: 1013.1 mb]
Winds: from the N (10 degrees) at 15 MPH (13 knots; 6.7 m/s)
Visibility: 4 miles ( 6 km)
Ceiling: 1200 feet AGL
Clouds: overcast cloud deck at 1200 feet AGL
Weather: -SN  (light snow)

METAR text: CYYZ 180745Z 01015KT 4SM -SN OVC009 M09/M13 A2987 RMK SC8 SLP129
Conditions at: CYYZ (TORONTO/PEARSON , ON, CA) observed 0745 UTC 18 February 2019
Temperature: -9.0°C (16°F)
Dewpoint: -13.0°C ( 9°F) [RH = 73%]
Pressure (altimeter): 29.87 inches Hg (1011.6 mb)
[Sea-level pressure: 1012.9 mb]
Winds: from the N (10 degrees) at 17 MPH (15 knots; 7.7 m/s)
Visibility: 4 miles ( 6 km)
Ceiling: 900 feet AGL
Clouds: overcast cloud deck at 900 feet AGL
Weather: -SN  (light snow)

METAR text: CYYZ 180735Z 02014KT 4SM -SN OVC014 M09/M13 A2988 RMK SC8 SLP132
Conditions at: CYYZ (TORONTO/PEARSON , ON, CA) observed 0735 UTC 18 February 2019
Temperature: -9.0°C (16°F)
Dewpoint: -13.0°C ( 9°F) [RH = 73%]
Pressure (altimeter): 29.88 inches Hg (1011.9 mb)
[Sea-level pressure: 1013.2 mb]
Winds: from the NNE (20 degrees) at 16 MPH (14 knots; 7.2 m/s)
Visibility: 4 miles ( 6 km)
Ceiling: 1400 feet AGL
Clouds: overcast cloud deck at 1400 feet AGL
Weather: -SN  (light snow)

METAR text: CYYZ 180708Z 36010KT 6SM -SN OVC020 M09/M13 A2989 RMK SC8 SLP133
Conditions at: CYYZ (TORONTO/PEARSON , ON, CA) observed 0708 UTC 18 February 2019
Temperature: -9.0°C (16°F)
Dewpoint: -13.0°C ( 9°F) [RH = 73%]
Pressure (altimeter): 29.89 inches Hg (1012.3 mb)
[Sea-level pressure: 1013.3 mb]
Winds: from the N (360 degrees) at 12 MPH (10 knots; 5.1 m/s)
Visibility: 6 miles (10 km)
Ceiling: 2000 feet AGL
Clouds: overcast cloud deck at 2000 feet AGL
Weather: -SN  (light snow)

METAR text: CYYZ 180700Z 01007KT 4SM -SN OVC012 M08/M13 A2989 RMK SC8 SLP134
Conditions at: CYYZ (TORONTO/PEARSON , ON, CA) observed 0700 UTC 18 February 2019
Temperature: -8.0°C (18°F)
Dewpoint: -13.0°C ( 9°F) [RH = 67%]
Pressure (altimeter): 29.89 inches Hg (1012.3 mb)
[Sea-level pressure: 1013.4 mb]
Winds: from the N (10 degrees) at 8 MPH (7 knots; 3.6 m/s)
Visibility: 4 miles ( 6 km)
Ceiling: 1200 feet AGL
Clouds: overcast cloud deck at 1200 feet AGL
Weather: -SN  (light snow)

METAR text: CYYZ 180640Z 03011KT 3SM -SN OVC010 M09/M13 A2988 RMK SC8 SLP130
Conditions at: CYYZ (TORONTO/PEARSON , ON, CA) observed 0640 UTC 18 February 2019
Temperature: -9.0°C (16°F)
Dewpoint: -13.0°C ( 9°F) [RH = 73%]
Pressure (altimeter): 29.88 inches Hg (1011.9 mb)
[Sea-level pressure: 1013.0 mb]
Winds: from the NNE (30 degrees) at 13 MPH (11 knots; 5.7 m/s)
Visibility: 3 miles ( 5 km)
Ceiling: 1000 feet AGL
Clouds: overcast cloud deck at 1000 feet AGL
Weather: -SN  (light snow)

METAR text: CYYZ 180631Z 03009KT 2SM -SN OVC008 M09/M13 A2989 RMK SN4SC4 SLP133
Conditions at: CYYZ (TORONTO/PEARSON , ON, CA) observed 0631 UTC 18 February 2019
Temperature: -9.0°C (16°F)
Dewpoint: -13.0°C ( 9°F) [RH = 73%]
Pressure (altimeter): 29.89 inches Hg (1012.3 mb)
[Sea-level pressure: 1013.3 mb]
Winds: from the NNE (30 degrees) at 10 MPH (9 knots; 4.6 m/s)
Visibility: 2.00 miles (3.22 km)
Ceiling: 800 feet AGL
Clouds: overcast cloud deck at 800 feet AGL
Weather: -SN  (light snow)

METAR text: CYYZ 180605Z 03011KT 1SM R06L/3000VP6000FT/D R05/P6000FT/N -SN VV005 M09/M14 A2988 RMK SN8 SLP131
Conditions at: CYYZ (TORONTO/PEARSON , ON, CA) observed 0605 UTC 18 February 2019
Temperature: -9.0°C (16°F)
Dewpoint: -14.0°C ( 7°F) [RH = 67%]
Pressure (altimeter): 29.88 inches Hg (1011.9 mb)
[Sea-level pressure: 1013.1 mb]
Winds: from the NNE (30 degrees) at 13 MPH (11 knots; 5.7 m/s)
Visibility: 1.00 miles (1.61 km)
Ceiling: indefinite ceiling with vertical visibility of 500 feet AGL
Clouds: obscured sky
Weather: -SN  (light snow)

METAR text: CYYZ 180600Z 02011KT 2SM -SN OVC009 M08/M14 A2988 RMK SN4SC4 SLP131
Conditions at: CYYZ (TORONTO/PEARSON , ON, CA) observed 0600 UTC 18 February 2019
Temperature: -8.0°C (18°F)
Dewpoint: -14.0°C ( 7°F) [RH = 62%]
Pressure (altimeter): 29.88 inches Hg (1011.9 mb)
[Sea-level pressure: 1013.1 mb]
Winds: from the NNE (20 degrees) at 13 MPH (11 knots; 5.7 m/s)
Visibility: 2.00 miles (3.22 km)
Ceiling: 900 feet AGL
Clouds: overcast cloud deck at 900 feet AGL
Weather: -SN  (light snow)

METAR text: CYYZ 180558Z 02011KT 2SM R06L/5000VP6000FT/U -SN OVC009 M08/M14 A2988 RMK SN4SC4 SLP131
Conditions at: CYYZ (TORONTO/PEARSON , ON, CA) observed 0558 UTC 18 February 2019
Temperature: -8.0°C (18°F)
Dewpoint: -14.0°C ( 7°F) [RH = 62%]
Pressure (altimeter): 29.88 inches Hg (1011.9 mb)
[Sea-level pressure: 1013.1 mb]
Winds: from the NNE (20 degrees) at 13 MPH (11 knots; 5.7 m/s)
Visibility: 2.00 miles (3.22 km)
Ceiling: 900 feet AGL
Clouds: overcast cloud deck at 900 feet AGL
Weather: -SN  (light snow)

METAR text: CYYZ 180527Z 03012KT 12SM -SN OVC022 M08/M14 A2988 RMK SC8 SLP132
Conditions at: CYYZ (TORONTO/PEARSON , ON, CA) observed 0527 UTC 18 February 2019
Temperature: -8.0°C (18°F)
Dewpoint: -14.0°C ( 7°F) [RH = 62%]
Pressure (altimeter): 29.88 inches Hg (1011.9 mb)
[Sea-level pressure: 1013.2 mb]
Winds: from the NNE (30 degrees) at 14 MPH (12 knots; 6.2 m/s)
Visibility: 12 miles (19 km)
Ceiling: 2200 feet AGL
Clouds: overcast cloud deck at 2200 feet AGL
Weather: -SN  (light snow)

METAR text: CYYZ 180511Z 05011KT 10SM -SN OVC013 M08/M14 A2988 RMK SC8 SLP131
Conditions at: CYYZ (TORONTO/PEARSON , ON, CA) observed 0511 UTC 18 February 2019
Temperature: -8.0°C (18°F)
Dewpoint: -14.0°C ( 7°F) [RH = 62%]
Pressure (altimeter): 29.88 inches Hg (1011.9 mb)
[Sea-level pressure: 1013.1 mb]
Winds: from the NE (50 degrees) at 13 MPH (11 knots; 5.7 m/s)
Visibility: 10 or more miles (16+ km)
Ceiling: 1300 feet AGL
Clouds: overcast cloud deck at 1300 feet AGL
Weather: -SN  (light snow)

METAR text: CYYZ 180500Z 05011G16KT 12SM -SN OVC015 M08/M14 A2988 RMK SC8 SLP129
Conditions at: CYYZ (TORONTO/PEARSON , ON, CA) observed 0500 UTC 18 February 2019
Temperature: -8.0°C (18°F)
Dewpoint: -14.0°C ( 7°F) [RH = 62%]
Pressure (altimeter): 29.88 inches Hg (1011.9 mb)
[Sea-level pressure: 1012.9 mb]
Winds: from the NE (50 degrees) at 13 MPH (11 knots; 5.7 m/s)
gusting to 18 MPH (16 knots; 8.2 m/s)
Visibility: 12 miles (19 km)
Ceiling: 1500 feet AGL
Clouds: overcast cloud deck at 1500 feet AGL
Weather: -SN  (light snow)

METAR text: CYYZ 180433Z 05008G16KT 12SM -SN OVC022 M07/M14 A2988 RMK SC8 SLP131
Conditions at: CYYZ (TORONTO/PEARSON , ON, CA) observed 0433 UTC 18 February 2019
Temperature: -7.0°C (19°F)
Dewpoint: -14.0°C ( 7°F) [RH = 57%]
Pressure (altimeter): 29.88 inches Hg (1011.9 mb)
[Sea-level pressure: 1013.1 mb]
Winds: from the NE (50 degrees) at 9 MPH (8 knots; 4.1 m/s)
gusting to 18 MPH (16 knots; 8.2 m/s)
Visibility: 12 miles (19 km)
Ceiling: 2200 feet AGL
Clouds: overcast cloud deck at 2200 feet AGL
Weather: -SN  (light snow)

METAR text: CYYZ 180416Z 05008G15KT 12SM -SN OVC014 M07/M14 A2988 RMK SC8 SLP131
Conditions at: CYYZ (TORONTO/PEARSON , ON, CA) observed 0416 UTC 18 February 2019
Temperature: -7.0°C (19°F)
Dewpoint: -14.0°C ( 7°F) [RH = 57%]
Pressure (altimeter): 29.88 inches Hg (1011.9 mb)
[Sea-level pressure: 1013.1 mb]
Winds: from the NE (50 degrees) at 9 MPH (8 knots; 4.1 m/s)
gusting to 17 MPH (15 knots; 7.7 m/s)
Visibility: 12 miles (19 km)
Ceiling: 1400 feet AGL
Clouds: overcast cloud deck at 1400 feet AGL
Weather: -SN  (light snow)

METAR text: CYYZ 180400Z 04012KT 15SM -SN OVC020 M07/M15 A2989 RMK SC8 SLP133
Conditions at: CYYZ (TORONTO/PEARSON , ON, CA) observed 0400 UTC 18 February 2019
Temperature: -7.0°C (19°F)
Dewpoint: -15.0°C ( 5°F) [RH = 53%]
Pressure (altimeter): 29.89 inches Hg (1012.3 mb)
[Sea-level pressure: 1013.3 mb]
Winds: from the NE (40 degrees) at 14 MPH (12 knots; 6.2 m/s)
Visibility: 15 miles (24 km)
Ceiling: 2000 feet AGL
Clouds: overcast cloud deck at 2000 feet AGL
Weather: -SN  (light snow)

METAR text: CYYZ 180342Z 04010KT 15SM -SN OVC022 M07/M14 A2990 RMK SC8 SLP136
Conditions at: CYYZ (TORONTO/PEARSON , ON, CA) observed 0342 UTC 18 February 2019
Temperature: -7.0°C (19°F)
Dewpoint: -14.0°C ( 7°F) [RH = 57%]
Pressure (altimeter): 29.90 inches Hg (1012.6 mb)
[Sea-level pressure: 1013.6 mb]
Winds: from the NE (40 degrees) at 12 MPH (10 knots; 5.1 m/s)
Visibility: 15 miles (24 km)
Ceiling: 2200 feet AGL
Clouds: overcast cloud deck at 2200 feet AGL
Weather: -SN  (light snow)

METAR text: CYYZ 180300Z 03012KT 15SM BKN025 BKN070 M07/M14 A2992 RMK SC5AC2 SLP145
Conditions at: CYYZ (TORONTO/PEARSON , ON, CA) observed 0300 UTC 18 February 2019
Temperature: -7.0°C (19°F)
Dewpoint: -14.0°C ( 7°F) [RH = 57%]
Pressure (altimeter): 29.92 inches Hg (1013.3 mb)
[Sea-level pressure: 1014.5 mb]
Winds: from the NNE (30 degrees) at 14 MPH (12 knots; 6.2 m/s)
Visibility: 15 miles (24 km)
Ceiling: 2500 feet AGL
Clouds: broken clouds at 2500 feet AGL
broken clouds at 7000 feet AGL
Weather: no significant weather observed at this time

METAR text: CYYZ 180200Z 06009KT 15SM FEW020 BKN070 M07/M14 A2992 RMK SC1AC7 SC TR SLP145
Conditions at: CYYZ (TORONTO/PEARSON , ON, CA) observed 0200 UTC 18 February 2019
Temperature: -7.0°C (19°F)
Dewpoint: -14.0°C ( 7°F) [RH = 57%]
Pressure (altimeter): 29.92 inches Hg (1013.3 mb)
[Sea-level pressure: 1014.5 mb]
Winds: from the ENE (60 degrees) at 10 MPH (9 knots; 4.6 m/s)
Visibility: 15 miles (24 km)
Ceiling: 7000 feet AGL
Clouds: few clouds at 2000 feet AGL
broken clouds at 7000 feet AGL
Weather: no significant weather observed at this time

METAR text: CYYZ 180100Z 07011KT 15SM FEW020 BKN070 M07/M13 A2992 RMK SC1AC7 SC TR SLP145
Conditions at: CYYZ (TORONTO/PEARSON , ON, CA) observed 0100 UTC 18 February 2019
Temperature: -7.0°C (19°F)
Dewpoint: -13.0°C ( 9°F) [RH = 62%]
Pressure (altimeter): 29.92 inches Hg (1013.3 mb)
[Sea-level pressure: 1014.5 mb]
Winds: from the ENE (70 degrees) at 13 MPH (11 knots; 5.7 m/s)
Visibility: 15 miles (24 km)
Ceiling: 7000 feet AGL
Clouds: few clouds at 2000 feet AGL
broken clouds at 7000 feet AGL
Weather: no significant weather observed at this time

METAR text: CYYZ 180000Z 06009KT 15SM FEW020 BKN075 M07/M13 A2995 RMK SC1AC7 SC TR SLP155
Conditions at: CYYZ (TORONTO/PEARSON , ON, CA) observed 0000 UTC 18 February 2019
Temperature: -7.0°C (19°F)
Dewpoint: -13.0°C ( 9°F) [RH = 62%]
Pressure (altimeter): 29.95 inches Hg (1014.3 mb)
[Sea-level pressure: 1015.5 mb]
Winds: from the ENE (60 degrees) at 10 MPH (9 knots; 4.6 m/s)
Visibility: 15 miles (24 km)
Ceiling: 7500 feet AGL
Clouds: few clouds at 2000 feet AGL
broken clouds at 7500 feet AGL
Weather: no significant weather observed at this time

Forecast for: CYYZ (TORONTO/PEARSON , ON, CA)
Text: TAF CYYZ 190838Z 1909/2012 26007KT P6SM SCT025
Forecast period: 0900 UTC 19 February 2019 to 0000 UTC 20 February 2019
Forecast type: FROM: standard forecast or significant change
Winds: from the W (260 degrees) at 8 MPH (7 knots; 3.6 m/s)
Visibility: 6 or more miles 10+ km)
Ceiling: at least 12,000 feet AGL
Clouds: scattered clouds at 2500 feet AGL
Weather: no significant weather forecast for this period
Text: TEMPO 1909/1921 BKN025
Forecast period: 0900 to 2100 UTC 19 February 2019
Forecast type: TEMPORARY: The following changes expected for less than half the time period
Visibility: missing
Ceiling: 2500 feet AGL
Clouds: broken clouds at 2500 feet AGL
Weather: no significant weather forecast for this period
Text: FM200000 28006KT P6SM SKC
Forecast period: 0000 to 0800 UTC 20 February 2019
Forecast type: FROM: standard forecast or significant change
Winds: from the W (280 degrees) at 7 MPH (6 knots; 3.1 m/s)
Visibility: 6 or more miles 10+ km)
Clouds: clear skies
Weather: no significant weather forecast for this period
Text: FM200800 36005KT P6SM BKN220 RMK NXT FCST BY 191200Z
Forecast period: 0800 to 1200 UTC 20 February 2019
Forecast type: FROM: standard forecast or significant change
Winds: from the N (360 degrees) at 6 MPH (5 knots; 2.6 m/s)
Visibility: 6 or more miles 10+ km)
Ceiling: 22000 feet AGL
Clouds: broken clouds at 22000 feet AGL
Weather: no significant weather forecast for this period